Latest Weather Observations for Ballina

IDN60801

Issued at 2:32 pm EDT Saturday 25 March 2017 (issued every 30 minutes, with the page automatically refreshed every 10 minutes)

About weather observations | Map of weather stations | Latest weather observations for NSW | Other Formats
Station Details ID: 058198 Name: BALLINA AIRPORT AWS Lat: -28.84 Lon: 153.56 Height: 1.3 m
Data from the previous 72 hours. | See also: Recent months at Ballina
Date/Time
EDT
Temp
°C
App
Temp
°C
Dew
Point
°C
Rel
Hum
%
Delta-T
°C
Wind Press
QNH
hPa
Press
MSL
hPa
Rain since
9am
mm
Dir  Spd
km/h
Gust
km/h
Spd
kts
Gust
kts
25/02:30pm 25.3 26.4 20.5 75 3.1 ESE 15 20 8 11 1015.9 1015.9 0.2
25/02:00pm 24.3 24.5 19.4 74 3.1 ESE 17 22 9 12 1016.3 1016.3 0.2
25/01:30pm 25.2 25.7 19.3 70 3.8 S 15 22 8 12 1016.6 1016.6 0.2
25/01:00pm 25.1 26.2 19.7 72 3.5 SSE 13 19 7 10 1016.9 1016.9 0.2
25/12:30pm 24.9 26.6 20.2 75 3.1 SSE 11 17 6 9 1017.4 1017.4 0.2
25/12:00pm 24.5 26.4 20.6 79 2.5 SSE 11 19 6 10 1017.8 1017.8 0.2
25/11:37am 23.6 25.0 20.3 82 2.1 SSE 13 19 7 10 1018.1 1018.1 0.2
25/11:30am 23.5 25.1 20.8 85 1.8 S 13 19 7 10 1018.1 1018.1 0.2
25/11:00am 22.7 25.3 22.0 96 0.5 SSW 11 17 6 9 1018.3 1018.3 0.2
25/10:49am 22.8 25.9 22.8 100 0.0 SW 11 15 6 8 1018.4 1018.4 0.2
25/10:45am 22.4 25.3 22.4 100 0.0 SW 11 15 6 8 1018.4 1018.4 0.2
25/10:31am 22.3 25.5 22.3 100 0.0 SW 9 13 5 7 1018.4 1018.4 0.2
25/10:30am 22.1 25.1 21.9 99 0.1 SW 9 15 5 8 1018.4 1018.4 0.2
25/10:15am 22.2 23.9 21.7 97 0.3 SW 15 20 8 11 1018.4 1018.4 0.0
25/10:00am 22.2 23.9 21.7 97 0.3 SW 15 20 8 11 1018.3 1018.3 0.0
25/09:38am 21.6 23.6 21.6 100 0.0 WSW 13 17 7 9 1018.1 1018.1 0.0
25/09:30am 21.7 23.4 21.7 100 0.0 WSW 15 19 8 10 1018.1 1018.1 0.0
25/09:00am 21.2 - - - - WSW 15 19 8 10 1017.9 1017.9 8.8
25/08:30am 20.8 - - - - WSW 11 15 6 8 1017.8 1017.8 8.8
25/08:00am 20.5 - - - - WSW 11 17 6 9 1017.4 1017.4 8.8
25/07:30am 20.2 - - - - W 7 11 4 6 1017.1 1017.1 8.8
25/07:00am 20.0 - - - - WSW 11 15 6 8 1017.0 1017.0 8.8
25/06:30am 20.2 - - - - WSW 13 17 7 9 1016.7 1016.7 8.8
25/06:09am 20.3 - - - - SW 15 19 8 10 1016.5 1016.5 8.8
25/06:00am 20.4 - - - - SW 13 19 7 10 1016.5 1016.5 8.8
25/05:46am 20.5 - - - - SW 11 19 6 10 1016.6 1016.6 8.6
25/05:30am 20.3 - - - - W 13 17 7 9 1016.4 1016.4 8.4
25/05:00am 20.2 - - - - WSW 15 19 8 10 1016.4 1016.4 8.4
25/04:53am 20.1 - - - - WSW 15 19 8 10 1016.4 1016.4 8.4
25/04:30am 20.1 - - - - WSW 13 15 7 8 1016.3 1016.3 8.4
25/04:00am 20.0 - - - - WSW 15 20 8 11 1016.4 1016.4 8.4
25/03:30am 20.2 - - - - WSW 17 20 9 11 1016.6 1016.6 8.4
25/03:08am 20.4 - - - - WSW 13 17 7 9 1016.7 1016.7 8.2
25/03:00am 20.4 - - - - SW 11 17 6 9 1016.7 1016.7 8.2
25/02:45am 20.5 - - - - SW 13 17 7 9 1017.0 1017.0 8.2
25/02:38am 20.5 - - - - WSW 13 17 7 9 1016.9 1016.9 8.2
25/02:30am 20.5 - - - - W 11 15 6 8 1017.0 1017.0 8.2
25/02:24am 20.6 - - - - W 7 11 4 6 1017.1 1017.1 8.2
25/02:00am 20.6 - - - - WNW 7 11 4 6 1017.4 1017.4 8.0
25/01:58am 20.6 - - - - WNW 7 9 4 5 1017.5 1017.5 8.0
25/01:30am 20.5 - - - - WSW 11 13 6 7 1017.8 1017.8 7.8
25/01:21am 20.5 - - - - WSW 11 13 6 7 1017.8 1017.8 7.6
25/01:09am 20.4 - - - - SW 13 20 7 11 1018.0 1018.0 7.6
25/01:00am 20.3 - - - - WSW 17 20 9 11 1018.0 1018.0 7.6
25/12:30am 20.3 21.7 20.3 100 0.0 SW 13 20 7 11 1018.2 1018.2 7.6
25/12:00am 20.4 21.4 20.2 99 0.1 SW 15 20 8 11 1018.3 1018.3 7.6
 
Date/Time
EDT
Temp
°C
App
Temp
°C
Dew
Point
°C
Rel
Hum
%
Delta-T
°C
Wind Press
QNH
hPa
Press
MSL
hPa
Rain since
9am
mm
Dir  Spd
km/h
Gust
km/h
Spd
kts
Gust
kts
24/11:30pm 20.7 21.3 20.2 97 0.3 SW 17 22 9 12 1018.2 1018.2 7.6
24/11:12pm 21.0 21.3 20.5 97 0.3 SW 19 28 10 15 1018.4 1018.4 7.6
24/11:00pm 21.4 22.4 21.1 98 0.2 SW 17 28 9 15 1018.2 1018.2 7.6
24/10:30pm 21.7 22.7 21.0 96 0.5 SW 17 20 9 11 1018.0 1018.0 7.6
24/10:08pm 22.0 23.3 20.8 93 0.8 SW 15 20 8 11 1018.1 1018.1 7.6
24/10:00pm 22.3 23.2 20.8 91 1.0 SW 17 24 9 13 1018.0 1018.0 7.6
24/09:57pm 22.4 23.2 20.7 90 1.1 SW 17 24 9 13 1018.0 1018.0 7.6
24/09:30pm 23.6 24.2 19.5 78 2.6 SSE 15 24 8 13 1017.7 1017.7 7.4
24/09:00pm 23.6 24.0 19.9 80 2.4 SE 17 24 9 13 1017.7 1017.7 7.4
24/08:30pm 23.7 23.6 19.6 78 2.6 SE 19 28 10 15 1017.4 1017.4 7.2
24/08:00pm 23.6 23.2 19.3 77 2.7 SSE 20 30 11 16 1017.2 1017.2 7.2
24/07:30pm 23.5 23.1 19.4 78 2.6 SSE 20 32 11 17 1016.9 1016.9 7.2
24/07:00pm 23.1 22.3 19.3 79 2.4 SSE 22 30 12 16 1016.6 1016.6 7.2
24/06:30pm 22.8 22.4 21.6 93 0.8 SSE 26 37 14 20 1016.5 1016.5 7.2
24/06:00pm 22.3 22.7 21.8 97 0.3 S 22 33 12 18 1016.2 1016.2 7.2
24/05:58pm 22.2 22.6 21.7 97 0.3 S 22 33 12 18 1016.2 1016.2 7.2
24/05:45pm 22.2 21.8 21.7 97 0.3 S 26 39 14 21 1016.2 1016.2 7.2
24/05:43pm 22.2 22.2 21.7 97 0.3 S 24 39 13 21 1016.2 1016.2 7.2
24/05:36pm 22.3 22.4 21.8 97 0.3 S 24 39 13 21 1016.1 1016.1 7.0
24/05:30pm 22.0 22.0 21.7 98 0.2 SSE 24 33 13 18 1016.0 1016.0 7.0
24/05:28pm 22.0 21.6 21.7 98 0.2 SSE 26 35 14 19 1016.0 1016.0 7.0
24/05:00pm 21.7 20.6 21.7 100 0.0 S 30 44 16 24 1016.0 1016.0 6.8
24/04:30pm 22.4 22.8 22.4 100 0.0 S 24 41 13 22 1015.8 1015.8 6.4
24/04:12pm 22.5 22.4 22.3 99 0.1 S 26 33 14 18 1015.7 1015.7 6.0
24/04:00pm 22.8 22.5 21.8 94 0.7 S 26 35 14 19 1015.7 1015.7 3.0
24/03:58pm 22.9 22.9 21.7 93 0.8 S 24 35 13 19 1015.7 1015.7 2.8
24/03:55pm 23.3 23.7 21.7 91 1.1 S 22 35 12 19 1015.7 1015.7 2.4
24/03:38pm 23.4 24.9 22.0 92 0.9 S 17 26 9 14 1015.5 1015.5 2.2
24/03:30pm 23.4 24.3 22.0 92 0.9 S 20 30 11 16 1015.6 1015.6 2.2
24/03:26pm 23.3 24.2 21.9 92 0.9 S 20 30 11 16 1015.6 1015.6 2.2
24/03:00pm 23.6 25.4 22.6 94 0.7 S 17 22 9 12 1015.6 1015.6 2.2
24/02:56pm 23.7 25.7 22.9 95 0.5 S 17 20 9 11 1015.6 1015.6 2.2
24/02:33pm 23.3 24.5 22.1 93 0.8 S 19 28 10 15 1015.8 1015.8 1.6
24/02:30pm 23.4 24.6 22.2 93 0.8 S 19 28 10 15 1015.8 1015.8 1.4
24/02:24pm 23.4 24.5 22.0 92 0.9 S 19 28 10 15 1015.9 1015.9 1.4
24/02:14pm 23.6 24.9 22.4 93 0.8 SSE 19 28 10 15 1016.0 1016.0 1.4
24/02:04pm 23.9 25.0 22.3 91 1.1 S 20 32 11 17 1016.1 1016.1 1.2
24/02:00pm 24.0 25.1 22.3 90 1.1 S 20 33 11 18 1016.2 1016.2 1.2
24/01:57pm 24.6 25.6 22.8 90 1.2 S 22 33 12 18 1016.2 1016.2 1.2
24/01:40pm 24.5 24.9 21.8 85 1.8 S 22 33 12 18 1016.3 1016.3 1.2
24/01:30pm 25.1 25.8 22.2 84 1.9 S 22 32 12 17 1016.4 1016.4 1.2
24/01:26pm 24.5 24.7 21.4 83 2.0 S 22 32 12 17 1016.4 1016.4 1.2
24/01:06pm 24.7 25.4 22.2 86 1.7 S 22 30 12 16 1016.5 1016.5 1.2
24/01:00pm 24.8 25.2 22.5 87 1.5 S 24 33 13 18 1016.5 1016.5 1.2
24/12:53pm 24.8 25.6 22.5 87 1.5 S 22 32 12 17 1016.6 1016.6 1.2
24/12:30pm 24.5 24.7 22.8 90 1.1 S 26 39 14 21 1016.7 1016.7 1.2
24/12:06pm 24.4 24.6 22.8 91 1.1 SSW 26 41 14 22 1016.9 1016.9 1.2
24/12:00pm 24.6 25.0 23.2 92 0.9 SSW 26 37 14 20 1016.9 1016.9 1.2
24/11:49am 24.5 25.6 23.1 92 0.9 SSW 22 33 12 18 1017.1 1017.1 1.0
24/11:40am 24.7 25.6 22.6 88 1.4 SSW 22 30 12 16 1017.1 1017.1 0.2
24/11:30am 25.7 26.5 22.4 82 2.2 SSW 22 32 12 17 1017.1 1017.1 0.0
24/11:05am 26.9 28.9 22.9 79 2.7 SW 17 22 9 12 1017.3 1017.3 0.0
24/11:00am 26.8 29.3 23.1 80 2.5 SSW 15 24 8 13 1017.3 1017.3 0.0
24/10:51am 26.2 28.1 22.7 81 2.4 SW 17 24 9 13 1017.3 1017.3 0.0
24/10:45am 26.0 27.8 22.5 81 2.4 SW 17 24 9 13 1017.3 1017.3 0.0
24/10:30am 26.0 28.6 22.7 82 2.2 SW 13 20 7 11 1017.3 1017.3 0.0
24/10:27am 25.9 28.7 23.0 84 2.0 SW 13 19 7 10 1017.3 1017.3 0.0
24/10:00am 25.1 27.4 22.0 83 2.1 WSW 13 19 7 10 1017.1 1017.1 0.0
24/09:30am 25.0 28.2 22.3 85 1.8 SW 9 13 5 7 1017.0 1017.0 0.0
24/09:10am 24.3 27.3 22.0 87 1.5 W 9 13 5 7 1016.9 1016.9 0.0
24/09:00am 24.1 26.7 22.0 88 1.4 W 11 13 6 7 1016.7 1016.7 3.0
24/08:47am 23.9 26.8 21.8 88 1.4 W 9 15 5 8 1016.6 1016.6 3.0
24/08:46am 24.1 27.2 22.2 89 1.3 W 9 15 5 8 1016.6 1016.6 3.0
24/08:30am 23.4 26.1 22.2 93 0.8 W 11 15 6 8 1016.6 1016.6 3.0
24/08:00am 22.6 25.8 22.3 98 0.2 W 9 11 5 6 1016.1 1016.1 3.0
24/07:30am 22.4 25.9 22.2 99 0.1 W 7 9 4 5 1015.9 1015.9 3.0
24/07:00am 22.2 25.3 22.2 100 0.0 W 9 11 5 6 1015.8 1015.8 3.0
24/06:30am 22.2 25.3 22.2 100 0.0 W 9 11 5 6 1015.4 1015.4 3.0
24/06:00am 22.1 25.7 22.1 100 0.0 SW 6 7 3 4 1015.1 1015.1 3.0
24/05:30am 22.0 26.7 22.0 100 0.0 CALM 0 0 0 0 1015.1 1015.1 3.0
24/05:00am 21.9 25.4 21.9 100 0.0 W 6 7 3 4 1015.1 1015.1 3.0
24/04:30am 21.7 25.1 21.7 100 0.0 W 6 7 3 4 1014.9 1014.9 3.0
24/04:08am 21.2 24.2 21.2 100 0.0 W 7 7 4 4 1014.9 1014.9 3.0
24/04:00am 21.1 24.2 21.1 100 0.0 W 6 7 3 4 1015.0 1015.0 3.0
24/03:30am 21.4 24.5 21.4 100 0.0 WNW 7 9 4 5 1015.1 1015.1 3.0
24/03:00am 21.3 24.2 21.1 99 0.1 WNW 7 9 4 5 1015.3 1015.3 3.0
24/02:30am 21.3 24.4 21.1 99 0.1 WNW 6 7 3 4 1015.7 1015.7 3.0
24/02:00am 21.5 24.7 21.2 98 0.2 W 6 7 3 4 1016.1 1016.1 3.0
24/01:30am 21.7 25.7 21.4 98 0.2 W 2 6 1 3 1016.4 1016.4 3.0
24/01:00am 21.5 25.1 21.2 98 0.2 W 4 6 2 3 1016.4 1016.4 3.0
24/12:30am 21.3 23.8 21.0 98 0.2 WSW 9 11 5 6 1016.5 1016.5 3.0
24/12:00am 21.3 24.2 21.1 99 0.1 WSW 7 11 4 6 1016.6 1016.6 3.0
 
Date/Time
EDT
Temp
°C
App
Temp
°C
Dew
Point
°C
Rel
Hum
%
Delta-T
°C
Wind Press
QNH
hPa
Press
MSL
hPa
Rain since
9am
mm
Dir  Spd
km/h
Gust
km/h
Spd
kts
Gust
kts
23/11:30pm 21.0 25.1 20.7 98 0.2 CALM 0 0 0 0 1016.7 1016.7 3.0
23/11:00pm 20.8 24.7 20.3 97 0.3 CALM 0 0 0 0 1016.9 1016.9 3.0
23/10:30pm 20.9 24.7 20.2 96 0.4 CALM 0 0 0 0 1016.9 1016.9 3.0
23/10:00pm 21.1 25.0 20.3 95 0.5 CALM 0 0 0 0 1017.1 1017.1 3.0
23/09:30pm 21.5 25.4 20.3 93 0.8 CALM 0 0 0 0 1017.0 1017.0 3.0
23/09:00pm 21.4 24.5 20.2 93 0.8 NNW 4 7 2 4 1016.8 1016.8 3.0
23/08:30pm 21.4 23.4 20.0 92 0.9 NW 9 13 5 7 1016.4 1016.4 3.0
23/08:00pm 21.2 23.5 19.8 92 0.9 NW 7 9 4 5 1016.4 1016.4 3.0
23/07:30pm 21.4 23.4 20.0 92 0.9 N 9 11 5 6 1016.2 1016.2 3.0
23/07:00pm 21.7 23.3 20.0 90 1.1 N 11 15 6 8 1016.2 1016.2 2.8
23/06:30pm 22.0 23.3 20.1 89 1.2 N 13 17 7 9 1016.2 1016.2 2.8
23/06:00pm 23.0 25.8 21.5 91 1.0 NNE 9 13 5 7 1016.1 1016.1 2.8
23/05:30pm 23.6 25.9 22.0 91 1.1 ENE 13 17 7 9 1015.8 1015.8 2.8
23/05:00pm 24.1 26.6 21.8 87 1.5 ENE 11 13 6 7 1015.6 1015.6 2.6
23/04:30pm 24.7 27.0 22.0 85 1.8 E 13 19 7 10 1015.5 1015.5 2.6
23/04:00pm 25.5 26.6 23.0 86 1.7 SSE 22 32 12 17 1015.2 1015.2 2.6
23/03:30pm 25.5 27.0 23.0 86 1.7 S 20 32 11 17 1015.1 1015.1 2.6
23/03:00pm 25.8 28.3 24.4 92 1.0 SSE 19 24 10 13 1015.2 1015.2 2.6
23/02:43pm 24.8 27.3 23.2 91 1.1 S 15 20 8 11 1015.3 1015.3 2.6
23/02:30pm 25.0 27.8 23.6 92 1.0 S 15 22 8 12 1015.4 1015.4 2.4
23/02:23pm 25.3 27.6 23.5 90 1.2 SSW 17 26 9 14 1015.4 1015.4 2.0
23/02:00pm 26.7 29.8 22.1 76 3.1 NE 9 13 5 7 1015.3 1015.3 1.2
23/01:30pm 25.5 28.5 23.4 88 1.4 NNE 13 17 7 9 1015.6 1015.6 1.2
23/01:28pm 25.6 28.7 23.5 88 1.4 NNE 13 17 7 9 1015.6 1015.6 1.2
23/01:12pm 25.4 27.2 22.5 84 1.9 NE 17 22 9 12 1015.8 1015.8 1.2
23/01:00pm 26.4 27.5 22.0 77 2.9 NE 19 24 10 13 1015.8 1015.8 0.0
23/12:30pm 27.8 28.7 22.7 74 3.5 ENE 22 26 12 14 1015.9 1015.9 0.0
23/12:00pm 27.8 30.2 21.6 69 4.1 NNW 11 17 6 9 1016.2 1016.2 0.0
23/11:30am 29.2 31.8 22.7 68 4.4 N 13 20 7 11 1016.4 1016.4 0.0
23/11:00am 28.3 30.2 22.1 69 4.2 NNE 15 20 8 11 1016.6 1016.6 0.0
23/10:30am 27.2 28.8 22.2 74 3.4 NNW 17 26 9 14 1016.8 1016.8 0.0
23/10:00am 27.8 30.4 22.7 74 3.5 NNW 13 20 7 11 1016.5 1016.5 0.0
23/09:30am 27.1 30.2 22.9 78 2.9 N 11 17 6 9 1016.3 1016.3 0.0
23/09:00am 26.3 28.4 22.4 79 2.6 N 15 20 8 11 1016.1 1016.1 0.2
23/08:30am 24.9 28.5 22.4 86 1.7 N 7 13 4 7 1015.6 1015.6 0.2
23/08:00am 23.0 27.0 22.7 98 0.2 NNE 6 7 3 4 1015.5 1015.5 0.2
23/07:30am 21.6 25.8 20.9 96 0.5 CALM 0 0 0 0 1015.3 1015.3 0.2
23/07:00am 22.3 26.4 21.6 96 0.5 NNE 2 7 1 4 1015.1 1015.1 0.2
23/06:30am 22.4 26.2 21.7 96 0.5 NNE 4 7 2 4 1014.9 1014.9 0.2
23/06:00am 22.3 25.8 21.8 97 0.3 NNE 6 7 3 4 1014.7 1014.7 0.2
23/05:30am 22.4 25.9 21.9 97 0.3 NNE 6 7 3 4 1014.5 1014.5 0.2
23/05:00am 22.6 27.4 22.1 97 0.3 CALM 0 0 0 0 1014.3 1014.3 0.2
23/04:30am 22.1 26.5 21.3 95 0.5 CALM 0 0 0 0 1014.2 1014.2 0.2
23/04:00am 22.9 27.6 21.9 94 0.7 CALM 0 0 0 0 1014.4 1014.4 0.2
23/03:30am 23.1 27.8 21.9 93 0.8 CALM 0 0 0 0 1014.6 1014.6 0.2
23/03:00am 23.3 26.9 22.1 93 0.8 NW 6 6 3 3 1014.8 1014.8 0.2
23/02:30am 23.5 28.1 21.8 90 1.1 CALM 0 0 0 0 1014.9 1014.9 0.2
23/02:00am 23.6 26.8 21.7 89 1.3 NNE 7 9 4 5 1015.1 1015.1 0.2
23/01:30am 23.8 27.2 21.7 88 1.4 NNE 6 6 3 3 1015.4 1015.4 0.2
23/01:00am 23.8 27.1 21.5 87 1.5 NNE 6 7 3 4 1015.5 1015.5 0.2
23/12:30am 23.8 27.0 21.7 88 1.4 NNE 7 11 4 6 1015.5 1015.5 0.2
23/12:00am 23.8 27.1 21.9 89 1.3 N 7 9 4 5 1015.7 1015.7 0.2
 
Date/Time
EDT
Temp
°C
App
Temp
°C
Dew
Point
°C
Rel
Hum
%
Delta-T
°C
Wind Press
QNH
hPa
Press
MSL
hPa
Rain since
9am
mm
Dir  Spd
km/h
Gust
km/h
Spd
kts
Gust
kts
22/11:30pm 23.9 26.8 21.8 88 1.4 NNE 9 11 5 6 1015.7 1015.7 0.2
22/11:00pm 23.9 26.8 21.8 88 1.4 NNE 9 11 5 6 1015.9 1015.9 0.2
22/10:30pm 24.0 27.4 21.7 87 1.5 NNE 6 9 3 5 1016.0 1016.0 0.2
22/10:00pm 24.0 27.5 21.9 88 1.4 NNE 6 7 3 4 1015.9 1015.9 0.2
22/09:30pm 24.2 27.5 21.9 87 1.5 N 7 9 4 5 1015.8 1015.8 0.2
22/09:00pm 24.1 27.5 22.0 88 1.4 NNE 7 11 4 6 1015.4 1015.4 0.2
22/08:30pm 24.1 27.1 22.0 88 1.4 NNE 9 11 5 6 1015.2 1015.2 0.2
22/08:00pm 24.3 27.2 21.8 86 1.7 NNE 9 13 5 7 1014.9 1014.9 0.2
22/07:30pm 24.5 27.4 21.8 85 1.8 N 9 13 5 7 1014.8 1014.8 0.2
22/07:00pm 24.8 27.9 21.5 82 2.2 NNE 7 11 4 6 1014.5 1014.5 0.2
22/06:30pm 25.4 28.1 21.3 78 2.7 N 9 13 5 7 1014.4 1014.4 0.2
22/06:00pm 26.1 27.6 22.0 78 2.7 N 17 22 9 12 1014.1 1014.1 0.2
22/05:30pm 26.4 28.7 22.0 77 2.9 NNE 13 17 7 9 1014.3 1014.3 0.2
22/05:00pm 26.9 29.0 22.5 77 3.0 N 15 22 8 12 1014.2 1014.2 0.2
22/04:30pm 27.4 29.5 22.4 74 3.4 N 15 22 8 12 1014.1 1014.1 0.2
22/04:00pm 27.7 29.1 22.6 74 3.5 NNE 19 30 10 16 1014.1 1014.1 0.2
22/03:30pm 27.3 27.1 22.0 73 3.6 NE 26 33 14 18 1014.1 1014.1 0.2
22/03:00pm 28.4 30.0 22.9 72 3.7 NNE 19 26 10 14 1014.3 1014.3 0.2

Other Formats:

Comma delimited format used in spreadsheet applications
http://www.bom.gov.au/fwo/IDN60801/IDN60801.94596.axf

JavaScript Object Notation format (JSON) in row-major order
http://www.bom.gov.au/fwo/IDN60801/IDN60801.94596.json